地図

経路データ

SID SEASON NUMBER BASIN SUBBASIN NAME ISO_TIME NATURE LAT LON WMO_WIND WMO_PRES WMO_AGENCY TRACK_TYPE DIST2LAND LANDFALL IFLAG USA_AGENCY USA_ATCF_ID USA_LAT USA_LON USA_RECORD USA_STATUS USA_WIND USA_PRES USA_SSHS USA_R34_NE USA_R34_SE USA_R34_SW USA_R34_NW USA_R50_NE USA_R50_SE USA_R50_SW USA_R50_NW USA_R64_NE USA_R64_SE USA_R64_SW USA_R64_NW USA_POCI USA_ROCI USA_RMW USA_EYE TOKYO_LAT TOKYO_LON TOKYO_GRADE TOKYO_WIND TOKYO_PRES TOKYO_R50_DIR TOKYO_R50_LONG TOKYO_R50_SHORT TOKYO_R30_DIR TOKYO_R30_LONG TOKYO_R30_SHORT TOKYO_LAND CMA_LAT CMA_LON CMA_CAT CMA_WIND CMA_PRES HKO_LAT HKO_LON HKO_CAT HKO_WIND HKO_PRES NEWDELHI_LAT NEWDELHI_LON NEWDELHI_GRADE NEWDELHI_WIND NEWDELHI_PRES NEWDELHI_CI NEWDELHI_DP NEWDELHI_POCI REUNION_LAT REUNION_LON REUNION_TYPE REUNION_WIND REUNION_PRES REUNION_TNUM REUNION_CI REUNION_RMW REUNION_R34_NE REUNION_R34_SE REUNION_R34_SW REUNION_R34_NW REUNION_R50_NE REUNION_R50_SE REUNION_R50_SW REUNION_R50_NW REUNION_R64_NE REUNION_R64_SE REUNION_R64_SW REUNION_R64_NW BOM_LAT BOM_LON BOM_TYPE BOM_WIND BOM_PRES BOM_TNUM BOM_CI BOM_RMW BOM_R34_NE BOM_R34_SE BOM_R34_SW BOM_R34_NW BOM_R50_NE BOM_R50_SE BOM_R50_SW BOM_R50_NW BOM_R64_NE BOM_R64_SE BOM_R64_SW BOM_R64_NW BOM_ROCI BOM_POCI BOM_EYE BOM_POS_METHOD BOM_PRES_METHOD NADI_LAT NADI_LON NADI_CAT NADI_WIND NADI_PRES WELLINGTON_LAT WELLINGTON_LON WELLINGTON_WIND WELLINGTON_PRES DS824_LAT DS824_LON DS824_STAGE DS824_WIND DS824_PRES TD9636_LAT TD9636_LON TD9636_STAGE TD9636_WIND TD9636_PRES TD9635_LAT TD9635_LON TD9635_WIND TD9635_PRES TD9635_ROCI NEUMANN_LAT NEUMANN_LON NEUMANN_CLASS NEUMANN_WIND NEUMANN_PRES MLC_LAT MLC_LON MLC_CLASS MLC_WIND MLC_PRES USA_GUST BOM_GUST BOM_GUST_PER REUNION_GUST REUNION_GUST_PER USA_SEAHGT USA_SEARAD_NE USA_SEARAD_SE USA_SEARAD_SW USA_SEARAD_NW STORM_SPEED STORM_DIR
1986289N10267 1986 104 EP MM ROSLYN 1986-10-15 18:00:00 TS 10.2000 -92.7000 25 hurdat_epa main 441 441 O_________O___ hurdat_epa EP171986 10.2000 -92.7000 TD 25 -1 10.2000 -92.7000 1 25 14 273
1986289N10267 1986 104 EP MM ROSLYN 1986-10-15 21:00:00 TS 10.2410 -93.4217 main 473 473 P_________P___ EP171986 10.2405 -93.4275 TD 27 -1 10.2427 -93.4043 1 27 14 274
1986289N10267 1986 104 EP MM ROSLYN 1986-10-16 00:00:00 TS 10.3000 -94.1000 30 hurdat_epa main 503 503 O_________O___ hurdat_epa EP171986 10.3000 -94.1000 TD 30 -1 10.3000 -94.1000 1 30 13 277
1986289N10267 1986 104 EP MM ROSLYN 1986-10-16 03:00:00 TS 10.3900 -94.7147 main 529 529 P_________P___ EP171986 10.3922 -94.6925 TD 32 -1 10.3834 -94.7814 1 32 12 279
1986289N10267 1986 104 EP MM ROSLYN 1986-10-16 06:00:00 TS 10.4964 -95.3384 35 hurdat_epa main 560 560 O_________P___ hurdat_epa EP171986 10.5000 -95.3000 TS 35 0 10.4857 -95.4534 1 35 14 279
1986289N10267 1986 104 EP MM ROSLYN 1986-10-16 09:00:00 TS 10.6045 -96.0684 main 562 548 P_________P___ EP171986 10.6076 -96.0500 TS 37 0 10.5952 -96.1237 1 37 15 278
1986289N10267 1986 104 EP MM ROSLYN 1986-10-16 12:00:00 TS 10.7000 -96.8000 40 hurdat_epa main 549 544 O_________O___ hurdat_epa EP171986 10.7000 -96.8000 TS 40 0 10.7000 -96.8000 2 40 13 276
1986289N10267 1986 104 EP MM ROSLYN 1986-10-16 15:00:00 TS 10.7534 -97.4179 main 544 544 P_________P___ EP171986 10.7496 -97.3927 TS 42 0 10.7649 -97.4935 2 42 12 275
1986289N10267 1986 104 EP MM ROSLYN 1986-10-16 18:00:00 TS 10.8064 -98.0484 45 hurdat_epa main 558 558 O_________P___ hurdat_epa EP171986 10.8000 -98.0000 TS 45 0 10.8257 -98.1936 2 45 14 276
1986289N10267 1986 104 EP MM ROSLYN 1986-10-16 21:00:00 TS 10.8885 -98.8130 main 577 577 P_________P___ EP171986 10.8851 -98.7850 TS 47 0 10.8987 -98.8969 2 47 15 277
1986289N10267 1986 104 EP MM ROSLYN 1986-10-17 00:00:00 TS 11.0000 -99.6000 50 hurdat_epa main 592 592 O_________O___ hurdat_epa EP171986 11.0000 -99.6000 TS 50 0 11.0000 -99.6000 2 50 15 280
1986289N10267 1986 104 EP MM ROSLYN 1986-10-17 03:00:00 TS 11.1498 -100.296 main 610 599 P_________P___ EP171986 11.1496 -100.300 TS 57 0 11.1505 -100.284 2 57 14 282
1986289N10267 1986 104 EP MM ROSLYN 1986-10-17 06:00:00 TS 11.3000 -101.000 65 hurdat_epa main 616 616 O_________O___ hurdat_epa EP171986 11.3000 -101.000 HU 65 1 11.3000 -101.000 3 65 15 280
1986289N10267 1986 104 EP MM ROSLYN 1986-10-17 09:00:00 TS 11.4076 -101.793 main 635 635 P_________P___ EP171986 11.4075 -101.793 HU 70 1 11.4082 -101.796 3 70 16 277
1986289N10267 1986 104 EP MM ROSLYN 1986-10-17 12:00:00 TS 11.5000 -102.600 75 hurdat_epa main 660 660 O_________O___ hurdat_epa EP171986 11.5000 -102.600 HU 75 1 11.5000 -102.600 4 75 16 277
1986289N10267 1986 104 EP MM ROSLYN 1986-10-17 15:00:00 TS 11.5998 -103.369 main 684 684 P_________P___ EP171986 11.5999 -103.380 HU 80 1 11.5994 -103.334 4 78 15 278
1986289N10267 1986 104 EP MM ROSLYN 1986-10-17 18:00:00 TS 11.6998 -104.080 85 hurdat_epa main 705 705 O_________P___ hurdat_epa EP171986 11.7000 -104.100 HU 85 2 11.6993 -104.022 4 82 13 279
1986289N10267 1986 104 EP MM ROSLYN 1986-10-17 21:00:00 TS 11.7997 -104.710 main 727 727 P_________P___ EP171986 11.7997 -104.723 HU 87 2 11.7995 -104.673 4 86 12 280
1986289N10267 1986 104 EP MM ROSLYN 1986-10-18 00:00:00 TS 11.9000 -105.300 90 hurdat_epa main 740 740 O_________O___ hurdat_epa EP171986 11.9000 -105.300 HU 90 2 11.9000 -105.300 4 90 12 280
1986289N10267 1986 104 EP MM ROSLYN 1986-10-18 03:00:00 TS 11.9968 -105.913 main 750 750 P_________P___ EP171986 11.9999 -105.900 HU 95 2 11.9876 -105.950 4 95 12 279
1986289N10267 1986 104 EP MM ROSLYN 1986-10-18 06:00:00 TS 12.0943 -106.519 100 hurdat_epa main 765 765 O_________P___ hurdat_epa EP171986 12.1000 -106.500 HU 100 3 12.0773 -106.575 4 100 12 279
1986289N10267 1986 104 EP MM ROSLYN 1986-10-18 09:00:00 TS 12.1833 -107.121 main 784 784 P_________P___ EP171986 12.1849 -107.108 HU 105 3 12.1783 -107.163 4 105 12 280
1986289N10267 1986 104 EP MM ROSLYN 1986-10-18 12:00:00 TS 12.3000 -107.700 110 hurdat_epa main 808 808 O_________O___ hurdat_epa EP171986 12.3000 -107.700 HU 110 3 12.3000 -107.700 4 110 12 285
1986289N10267 1986 104 EP MM ROSLYN 1986-10-18 15:00:00 TS 12.4816 -108.269 main 828 828 P_________P___ EP171986 12.4925 -108.295 HU 112 3 12.4489 -108.192 4 112 11 290
1986289N10267 1986 104 EP MM ROSLYN 1986-10-18 18:00:00 TS 12.6799 -108.758 115 hurdat_epa main 843 839 O_________P___ hurdat_epa EP171986 12.7000 -108.800 HU 115 4 12.6194 -108.633 4 115 9 294
1986289N10267 1986 104 EP MM ROSLYN 1986-10-18 21:00:00 TS 12.8386 -109.106 main 851 841 P_________P___ EP171986 12.8498 -109.130 HU 117 4 12.8053 -109.032 4 117 7 297
1986289N10267 1986 104 EP MM ROSLYN 1986-10-19 00:00:00 TS 13.0000 -109.400 120 hurdat_epa main 850 847 O_________O___ hurdat_epa EP171986 13.0000 -109.400 HU 120 4 13.0000 -109.400 4 120 7 299
1986289N10267 1986 104 EP MM ROSLYN 1986-10-19 03:00:00 TS 13.1864 -109.754 main 857 853 P_________P___ EP171986 13.1925 -109.750 HU 122 4 13.1682 -109.766 4 121 8 300
1986289N10267 1986 104 EP MM ROSLYN 1986-10-19 06:00:00 TS 13.3868 -110.101 125 hurdat_epa main 860 859 O_________P___ hurdat_epa EP171986 13.4000 -110.100 HU 125 4 13.3472 -110.103 4 122 7 302
1986289N10267 1986 104 EP MM ROSLYN 1986-10-19 09:00:00 TS 13.5769 -110.409 main 865 865 P_________P___ EP171986 13.5849 -110.408 HU 125 4 13.5527 -110.413 4 123 7 305
1986289N10267 1986 104 EP MM ROSLYN 1986-10-19 12:00:00 TS 13.8000 -110.700 125 hurdat_epa main 872 871 O_________O___ hurdat_epa EP171986 13.8000 -110.700 HU 125 4 13.8000 -110.700 4 125 8 310
1986289N10267 1986 104 EP MM ROSLYN 1986-10-19 15:00:00 TS 14.0741 -111.011 main 871 870 P_________P___ EP171986 14.0700 -111.015 HU 125 4 14.0866 -111.000 4 122 8 316
1986289N10267 1986 104 EP MM ROSLYN 1986-10-19 18:00:00 TS 14.4044 -111.294 125 hurdat_epa main 870 856 O_________P___ hurdat_epa EP171986 14.4000 -111.300 HU 125 4 14.4175 -111.275 4 120 9 325
1986289N10267 1986 104 EP MM ROSLYN 1986-10-19 21:00:00 TS 14.7805 -111.514 main 856 843 P_________P___ EP171986 14.7774 -111.515 HU 120 4 14.7897 -111.512 4 117 9 334
1986289N10267 1986 104 EP MM ROSLYN 1986-10-20 00:00:00 TS 15.2000 -111.700 115 hurdat_epa main 845 833 O_________O___ hurdat_epa EP171986 15.2000 -111.700 HU 115 4 15.2000 -111.700 4 115 9 335
1986289N10267 1986 104 EP MM ROSLYN 1986-10-20 03:00:00 TS 15.6350 -111.921 main 836 791 P_________P___ EP171986 15.6350 -111.937 HU 115 4 15.6348 -111.874 4 108 10 338
1986289N10267 1986 104 EP MM ROSLYN 1986-10-20 06:00:00 TS 16.1012 -112.073 115 hurdat_epa main 791 738 O_________P___ hurdat_epa EP171986 16.1000 -112.100 HU 115 4 16.1047 -111.992 4 102 10 350
1986289N10267 1986 104 EP MM ROSLYN 1986-10-20 09:00:00 TS 16.5937 -112.092 main 738 681 P_________P___ EP171986 16.5924 -112.110 HU 102 3 16.5973 -112.039 4 96 10 4
1986289N10267 1986 104 EP MM ROSLYN 1986-10-20 12:00:00 TS 17.1000 -112.000 90 hurdat_epa main 681 624 O_________O___ hurdat_epa EP171986 17.1000 -112.000 HU 90 2 17.1000 -112.000 4 90 10 14
1986289N10267 1986 104 EP MM ROSLYN 1986-10-20 15:00:00 TS 17.6012 -111.842 main 621 562 P_________P___ EP171986 17.6000 -111.830 HU 82 1 17.6050 -111.878 4 86 11 20
1986289N10267 1986 104 EP MM ROSLYN 1986-10-20 18:00:00 TS 18.1037 -111.618 75 hurdat_epa main 562 502 O_________P___ hurdat_epa EP171986 18.1000 -111.600 HU 75 1 18.1150 -111.671 4 82 11 24
1986289N10267 1986 104 EP MM ROSLYN 1986-10-20 21:00:00 TS 18.5987 -111.374 main 502 440 P_________P___ EP171986 18.5925 -111.365 HU 75 1 18.6175 -111.403 4 78 11 26
1986289N10267 1986 104 EP MM ROSLYN 1986-10-21 00:00:00 TS 19.1000 -111.100 75 hurdat_epa main 440 378 O_________O___ hurdat_epa EP171986 19.1000 -111.100 HU 75 1 19.1000 -111.100 4 75 12 27
1986289N10267 1986 104 EP MM ROSLYN 1986-10-21 03:00:00 TS 19.6516 -110.816 main 367 317 P_________P___ EP171986 19.6799 -110.815 HU 75 1 19.5667 -110.820 4 72 12 28
1986289N10267 1986 104 EP MM ROSLYN 1986-10-21 06:00:00 TS 20.1524 -110.502 75 hurdat_epa main 306 269 O_________P___ hurdat_epa EP171986 20.2000 -110.500 HU 75 1 20.0096 -110.510 4 70 11 35
1986289N10267 1986 104 EP MM ROSLYN 1986-10-21 09:00:00 TS 20.5088 -110.166 main 269 234 P_________P___ EP171986 20.5374 -110.165 HU 70 1 20.4228 -110.170 4 67 9 45
1986289N10267 1986 104 EP MM ROSLYN 1986-10-21 12:00:00 TS 20.8000 -109.800 65 hurdat_epa main 234 203 O_________O___ hurdat_epa EP171986 20.8000 -109.800 HU 65 1 20.8000 -109.800 4 65 9 50
1986289N10267 1986 104 EP MM ROSLYN 1986-10-21 15:00:00 TS 21.1056 -109.416 main 205 182 P_________P___ EP171986 21.0999 -109.415 HU 65 1 21.1228 -109.418 4 65 10 51
1986289N10267 1986 104 EP MM ROSLYN 1986-10-21 18:00:00 TS 21.4033 -109.002 65 hurdat_epa main 186 178 O_________P___ hurdat_epa EP171986 21.4000 -109.000 HU 65 1 21.4133 -109.007 4 65 10 53
1986289N10267 1986 104 EP MM ROSLYN 1986-10-21 21:00:00 TS 21.6936 -108.565 main 182 181 P_________P___ EP171986 21.6924 -108.565 HU 65 1 21.6972 -108.567 4 65 10 55
1986289N10267 1986 104 EP MM ROSLYN 1986-10-22 00:00:00 TS 22.0000 -108.100 65 hurdat_epa main 196 158 O_________O___ hurdat_epa EP171986 22.0000 -108.100 HU 65 1 22.0000 -108.100 4 65 11 54
1986289N10267 1986 104 EP MM ROSLYN 1986-10-22 03:00:00 TS 22.3365 -107.612 main 158 90 P_________P___ EP171986 22.3348 -107.615 HU 65 1 22.3393 -107.608 4 65 12 53
1986289N10267 1986 104 EP MM ROSLYN 1986-10-22 06:00:00 TS 22.7000 -107.100 65 hurdat_epa main 90 23 O_________O___ hurdat_epa EP171986 22.7000 -107.100 HU 65 1 22.7000 -107.100 4 65 12 52
1986289N10267 1986 104 EP MM ROSLYN 1986-10-22 09:00:00 TS 23.0929 -106.558 main 23 0 P_____________ EP171986 23.0929 -106.558 HU 55 0 4 13 52
1986289N10267 1986 104 EP MM ROSLYN 1986-10-22 12:00:00 ET 23.5000 -106.000 45 hurdat_epa main 0 O_____________ hurdat_epa EP171986 23.5000 -106.000 ET 45 -4 13 51

IBTrACS Databaseについて

本データベースは、米国NOAAが公開する1842年以降の世界の熱帯低気圧のベストトラックデータアーカイブInternational Best Track Archive for Climate Stewardship (IBTrACS)を、ウェブで閲覧しやすい形式に変換したものです。

最終更新日:2021-12-06